createdAt,value
2017-09-17T00:00:30.630Z,6.85
2017-09-17T00:01:36.776Z,7.90
2017-09-17T00:02:44.447Z,7.60
2017-09-17T00:03:50.551Z,8.02
2017-09-17T00:04:56.855Z,6.87
2017-09-17T00:06:03.139Z,7.25
2017-09-17T00:07:09.590Z,7.50
2017-09-17T00:08:15.875Z,7.18
2017-09-17T00:09:22.196Z,6.60
2017-09-17T00:10:28.387Z,7.10
2017-09-17T00:11:35.868Z,7.22
2017-09-17T00:12:42.369Z,6.70
2017-09-17T00:13:48.959Z,8.07
2017-09-17T00:14:55.380Z,8.07
2017-09-17T00:16:01.635Z,7.57
2017-09-17T00:17:08.764Z,8.70
2017-09-17T00:18:15.029Z,8.18
2017-09-17T00:19:21.186Z,8.15
2017-09-17T00:20:27.520Z,8.57
2017-09-17T00:21:34.478Z,7.97
2017-09-17T00:22:40.943Z,10.65
2017-09-17T00:23:47.315Z,9.25
2017-09-17T00:24:53.704Z,10.32
2017-09-17T00:26:00.080Z,8.85
2017-09-17T00:27:06.576Z,8.02
2017-09-17T00:28:12.993Z,8.63
2017-09-17T00:29:19.154Z,7.95
2017-09-17T00:30:26.298Z,8.55
2017-09-17T00:31:33.253Z,8.60
2017-09-17T00:32:40.161Z,8.15
2017-09-17T00:33:46.491Z,8.70
2017-09-17T00:34:52.856Z,8.48
2017-09-17T00:35:59.523Z,8.73
2017-09-17T00:37:06.464Z,8.65
2017-09-17T00:38:12.968Z,9.25
2017-09-17T00:39:19.206Z,10.57
2017-09-17T00:40:25.521Z,8.25
2017-09-17T00:41:31.391Z,9.23
2017-09-17T00:42:38.460Z,11.18
2017-09-17T00:43:45.760Z,8.88
2017-09-17T00:44:52.405Z,10.35
2017-09-17T00:45:58.786Z,9.95
2017-09-17T00:47:05.351Z,10.18
2017-09-17T00:48:11.732Z,9.60
2017-09-17T00:49:17.915Z,9.20
2017-09-17T00:50:24.091Z,9.38
2017-09-17T00:51:29.943Z,9.40
2017-09-17T00:52:35.942Z,9.00
2017-09-17T00:53:41.420Z,9.73
2017-09-17T00:54:46.779Z,9.77
2017-09-17T00:55:52.912Z,9.57
2017-09-17T00:56:59.948Z,7.75
2017-09-17T00:58:06.163Z,8.23
2017-09-17T00:59:12.840Z,7.65
2017-09-17T01:00:18.699Z,9.05
2017-09-17T01:01:24.881Z,8.55
2017-09-17T01:02:31.087Z,8.70
2017-09-17T01:03:37.497Z,8.20
2017-09-17T01:04:43.554Z,8.63
2017-09-17T01:05:50.045Z,8.35
2017-09-17T01:06:56.356Z,9.40
2017-09-17T01:08:02.254Z,8.25
2017-09-17T01:09:08.634Z,8.57
2017-09-17T01:10:14.926Z,9.00
2017-09-17T01:11:21.509Z,9.18
2017-09-17T01:12:28.122Z,8.30
2017-09-17T01:13:35.164Z,8.32
2017-09-17T01:14:41.340Z,9.15
2017-09-17T01:15:48.063Z,8.65
2017-09-17T01:16:54.293Z,9.05
2017-09-17T01:18:00.523Z,9.52
2017-09-17T01:19:07.220Z,8.90
2017-09-17T01:20:13.603Z,9.93
2017-09-17T01:21:19.981Z,8.63
2017-09-17T01:22:26.097Z,8.13
2017-09-17T01:23:32.072Z,8.60
2017-09-17T01:24:37.926Z,8.77
2017-09-17T01:25:45.016Z,7.70
2017-09-17T01:26:51.403Z,8.00
2017-09-17T01:27:58.132Z,8.45
2017-09-17T01:29:04.745Z,9.05
2017-09-17T01:30:10.953Z,8.35
2017-09-17T01:31:17.470Z,8.30
2017-09-17T01:32:24.054Z,8.32
2017-09-17T01:33:30.275Z,7.65
2017-09-17T01:34:36.478Z,8.15
2017-09-17T01:35:43.022Z,7.68
2017-09-17T01:36:49.352Z,7.60
2017-09-17T01:37:55.649Z,7.93
2017-09-17T01:39:01.843Z,8.52
2017-09-17T01:40:07.659Z,9.40
2017-09-17T01:41:13.973Z,8.88
2017-09-17T01:42:20.258Z,9.18
2017-09-17T01:43:26.595Z,9.55
2017-09-17T01:44:33.191Z,8.90
2017-09-17T01:45:39.556Z,9.38
2017-09-17T01:46:46.327Z,8.57
2017-09-17T01:47:52.705Z,9.05
2017-09-17T01:48:59.282Z,9.00
2017-09-17T01:50:05.795Z,8.50
2017-09-17T01:51:12.191Z,8.85
2017-09-17T01:52:18.725Z,8.70
2017-09-17T01:53:24.847Z,8.15
2017-09-17T01:54:31.567Z,9.40
2017-09-17T01:55:37.874Z,7.90
2017-09-17T01:56:44.286Z,8.57
2017-09-17T01:57:50.741Z,8.23
2017-09-17T01:58:56.804Z,8.07
2017-09-17T02:00:03.103Z,8.45
2017-09-17T02:01:09.425Z,8.10
2017-09-17T02:02:16.948Z,7.90
2017-09-17T02:03:23.211Z,8.45
2017-09-17T02:04:29.667Z,9.70
2017-09-17T02:05:36.190Z,7.93
2017-09-17T02:06:42.714Z,9.48
2017-09-17T02:07:48.896Z,8.60
2017-09-17T02:08:55.348Z,7.65
2017-09-17T02:10:01.656Z,8.63
2017-09-17T02:11:08.262Z,9.32
2017-09-17T02:12:14.369Z,8.80
2017-09-17T02:13:20.597Z,8.30
2017-09-17T02:14:26.816Z,9.13
2017-09-17T02:15:34.444Z,8.40
2017-09-17T02:16:41.782Z,9.13
2017-09-17T02:17:48.041Z,10.60
2017-09-17T02:18:55.309Z,10.00
2017-09-17T02:20:02.618Z,11.40
2017-09-17T02:21:09.129Z,9.98
2017-09-17T02:22:16.396Z,10.18
2017-09-17T02:23:23.667Z,10.98
2017-09-17T02:24:31.220Z,11.15
2017-09-17T02:25:37.711Z,10.45
2017-09-17T02:26:44.202Z,10.57
2017-09-17T02:27:50.828Z,11.73
2017-09-17T02:28:58.068Z,10.23
2017-09-17T02:30:03.946Z,8.93
2017-09-17T02:31:11.291Z,9.00
2017-09-17T02:32:17.704Z,7.68
2017-09-17T02:33:24.340Z,8.20
2017-09-17T02:34:31.271Z,9.85
2017-09-17T02:35:38.054Z,9.30
2017-09-17T02:36:44.400Z,8.68
2017-09-17T02:37:50.648Z,8.77
2017-09-17T02:38:57.851Z,8.13
2017-09-17T02:40:03.731Z,8.60
2017-09-17T02:41:10.299Z,7.95
2017-09-17T02:42:16.370Z,8.25
2017-09-17T02:43:23.502Z,8.25
2017-09-17T02:44:30.113Z,8.15
2017-09-17T02:45:36.516Z,8.40
2017-09-17T02:46:42.642Z,7.87
2017-09-17T02:47:48.817Z,8.15
2017-09-17T02:48:55.044Z,7.40
2017-09-17T02:50:02.293Z,8.10
2017-09-17T02:51:09.230Z,9.43
2017-09-17T02:52:15.530Z,8.30
2017-09-17T02:53:21.747Z,9.57
2017-09-17T02:54:28.174Z,8.82
2017-09-17T02:55:35.259Z,10.32
2017-09-17T02:56:41.611Z,9.90
2017-09-17T02:57:48.624Z,10.15
2017-09-17T02:58:55.551Z,10.05
2017-09-17T03:00:02.273Z,9.10
2017-09-17T03:01:08.231Z,8.80
2017-09-17T03:02:14.485Z,8.85
2017-09-17T03:03:20.745Z,9.55
2017-09-17T03:04:27.147Z,9.75
2017-09-17T03:05:33.525Z,9.52
2017-09-17T03:06:40.021Z,8.85
2017-09-17T03:07:46.229Z,9.80
2017-09-17T03:08:52.548Z,8.90
2017-09-17T03:09:58.914Z,8.68
2017-09-17T03:11:05.800Z,9.35
2017-09-17T03:12:13.510Z,10.82
2017-09-17T03:13:20.138Z,9.55
2017-09-17T03:14:26.474Z,8.68
2017-09-17T03:15:32.659Z,7.82
2017-09-17T03:16:39.509Z,9.07
2017-09-17T03:17:46.643Z,8.82
2017-09-17T03:18:53.065Z,9.23
2017-09-17T03:19:59.672Z,9.05
2017-09-17T03:21:06.190Z,9.00
2017-09-17T03:22:12.754Z,10.20
2017-09-17T03:23:19.151Z,10.85
2017-09-17T03:24:26.043Z,9.80
2017-09-17T03:25:32.439Z,11.73
2017-09-17T03:26:39.652Z,9.43
2017-09-17T03:27:46.090Z,10.25
2017-09-17T03:28:52.521Z,10.90
2017-09-17T03:29:58.701Z,11.10
2017-09-17T03:31:05.957Z,11.10
2017-09-17T03:32:12.285Z,11.77
2017-09-17T03:33:18.794Z,11.25
2017-09-17T03:34:25.344Z,10.80
2017-09-17T03:35:31.637Z,12.18
2017-09-17T03:36:38.136Z,11.95
2017-09-17T03:37:45.009Z,11.65
2017-09-17T03:38:51.387Z,11.82
2017-09-17T03:39:57.735Z,10.50
2017-09-17T03:41:04.158Z,10.77
2017-09-17T03:42:10.090Z,12.27
2017-09-17T03:43:16.766Z,11.85
2017-09-17T03:44:23.032Z,12.20
2017-09-17T03:45:29.326Z,11.68
2017-09-17T03:46:35.713Z,12.40
2017-09-17T03:47:42.201Z,11.00
2017-09-17T03:48:48.455Z,11.55
2017-09-17T03:49:55.106Z,10.52
2017-09-17T03:51:01.426Z,9.88
2017-09-17T03:52:07.707Z,9.73
2017-09-17T03:53:14.042Z,11.27
2017-09-17T03:54:21.107Z,10.32
2017-09-17T03:55:27.688Z,9.63
2017-09-17T03:56:33.985Z,9.48
2017-09-17T03:57:41.168Z,11.30
2017-09-17T03:58:47.555Z,9.60
2017-09-17T03:59:54.419Z,10.73
2017-09-17T04:01:00.797Z,11.30
2017-09-17T04:02:08.028Z,10.80
2017-09-17T04:03:15.555Z,11.77
2017-09-17T04:04:21.996Z,11.60
2017-09-17T04:05:28.812Z,12.32
2017-09-17T04:06:35.928Z,14.05
2017-09-17T04:07:42.461Z,12.90
2017-09-17T04:08:49.071Z,11.00
2017-09-17T04:09:56.087Z,12.50
2017-09-17T04:11:02.507Z,11.00
2017-09-17T04:12:09.123Z,10.77
2017-09-17T04:13:16.422Z,10.57
2017-09-17T04:14:23.405Z,11.05
2017-09-17T04:15:31.007Z,11.98
2017-09-17T04:16:39.129Z,11.45
2017-09-17T04:17:46.372Z,12.37
2017-09-17T04:18:56.420Z,10.85
2017-09-17T04:20:04.117Z,10.65
2017-09-17T04:21:12.437Z,11.75
2017-09-17T04:22:21.347Z,9.65
2017-09-17T04:23:30.572Z,11.60
2017-09-17T04:24:38.786Z,10.27
2017-09-17T04:25:47.449Z,9.80
2017-09-17T04:26:55.959Z,10.27
2017-09-17T04:28:03.714Z,11.57
2017-09-17T04:29:11.750Z,12.88
2017-09-17T04:30:19.686Z,11.38
2017-09-17T04:31:28.455Z,13.62
2017-09-17T04:32:37.601Z,13.40
2017-09-17T04:33:45.759Z,13.27
2017-09-17T04:34:54.778Z,13.60
2017-09-17T04:36:03.693Z,14.85
2017-09-17T04:37:13.713Z,13.10
2017-09-17T04:38:23.686Z,11.85
2017-09-17T04:39:34.049Z,12.10
2017-09-17T04:40:43.683Z,11.35
2017-09-17T04:41:52.996Z,12.93
2017-09-17T04:43:02.706Z,12.70
2017-09-17T04:44:10.733Z,13.85
2017-09-17T04:45:20.745Z,14.15
2017-09-17T04:46:31.779Z,13.60
2017-09-17T04:47:41.699Z,13.85
2017-09-17T04:48:51.706Z,12.82
2017-09-17T04:50:02.788Z,12.75
2017-09-17T04:51:12.750Z,12.07
2017-09-17T04:52:21.714Z,10.70
2017-09-17T04:53:31.821Z,12.02
2017-09-17T04:54:41.599Z,11.38
2017-09-17T04:55:50.731Z,12.48
2017-09-17T04:56:59.620Z,11.80
2017-09-17T04:58:10.741Z,11.65
2017-09-17T04:59:21.578Z,11.80
2017-09-17T05:00:33.645Z,13.43
2017-09-17T05:01:42.747Z,12.40
2017-09-17T05:02:52.648Z,12.73
2017-09-17T05:04:04.695Z,14.18
2017-09-17T05:05:14.751Z,13.88
2017-09-17T05:06:23.647Z,12.50
2017-09-17T05:07:33.964Z,12.27
2017-09-17T05:08:43.677Z,12.50
2017-09-17T05:09:53.626Z,11.77
2017-09-17T05:11:04.593Z,12.68
2017-09-17T05:12:13.683Z,11.90
2017-09-17T05:13:24.545Z,12.15
2017-09-17T05:14:33.655Z,11.93
2017-09-17T05:15:43.726Z,12.98
2017-09-17T05:16:52.731Z,14.60
2017-09-17T05:18:01.626Z,13.00
2017-09-17T05:19:10.622Z,12.65
2017-09-17T05:20:19.579Z,12.60
2017-09-17T05:21:28.601Z,12.20
2017-09-17T05:22:37.441Z,12.32
2017-09-17T05:23:46.287Z,12.40
2017-09-17T05:24:53.928Z,11.55
2017-09-17T05:26:03.627Z,11.82
2017-09-17T05:27:17.677Z,12.93
2017-09-17T05:28:28.839Z,12.45
2017-09-17T05:29:38.643Z,11.43
2017-09-17T05:30:49.575Z,12.68
2017-09-17T05:31:59.780Z,13.35
2017-09-17T05:33:09.711Z,13.27
2017-09-17T05:34:19.737Z,13.35
2017-09-17T05:35:29.766Z,13.32
2017-09-17T05:36:38.757Z,12.35
2017-09-17T05:37:48.683Z,12.02
2017-09-17T05:38:59.698Z,13.27
2017-09-17T05:40:09.662Z,12.55
2017-09-17T05:41:21.757Z,13.00
2017-09-17T05:42:31.916Z,13.45
2017-09-17T05:43:42.586Z,12.27
2017-09-17T05:44:53.063Z,12.07
2017-09-17T05:46:06.782Z,12.10
2017-09-17T05:47:19.821Z,11.77
2017-09-17T05:48:29.625Z,11.90
2017-09-17T05:49:39.812Z,12.00
2017-09-17T05:50:49.674Z,13.13
2017-09-17T05:52:00.550Z,11.70
2017-09-17T05:53:10.702Z,12.45
2017-09-17T05:54:20.716Z,13.07
2017-09-17T05:55:30.637Z,13.00
2017-09-17T05:56:40.671Z,12.90
2017-09-17T05:57:50.486Z,10.90
2017-09-17T05:59:00.598Z,11.90
2017-09-17T06:00:12.598Z,12.88
2017-09-17T06:01:21.595Z,12.43
2017-09-17T06:02:31.495Z,11.90
2017-09-17T06:03:42.302Z,13.25
2017-09-17T06:04:59.642Z,15.43
2017-09-17T06:06:09.538Z,18.35
2017-09-17T06:07:18.593Z,17.83
2017-09-17T06:08:30.603Z,17.60
2017-09-17T06:09:40.657Z,20.15
2017-09-17T06:10:50.652Z,20.42
2017-09-17T06:12:01.339Z,18.75
2017-09-17T06:13:10.687Z,19.50
2017-09-17T06:14:21.605Z,18.55
2017-09-17T06:15:32.568Z,17.62
2017-09-17T06:16:44.478Z,17.87
2017-09-17T06:17:54.632Z,16.48
2017-09-17T06:19:05.546Z,16.95
2017-09-17T06:20:16.548Z,16.00
2017-09-17T06:21:26.573Z,15.52
2017-09-17T06:22:36.569Z,16.48
2017-09-17T06:23:46.656Z,16.25
2017-09-17T06:24:54.694Z,16.45
2017-09-17T06:26:03.616Z,16.35
2017-09-17T06:27:13.652Z,15.57
2017-09-17T06:28:23.546Z,14.85
2017-09-17T06:29:33.515Z,13.52
2017-09-17T06:30:43.428Z,14.10
2017-09-17T06:31:53.501Z,14.27
2017-09-17T06:33:03.551Z,12.65
2017-09-17T06:34:13.445Z,13.70
2017-09-17T06:35:25.454Z,14.13
2017-09-17T06:36:34.729Z,15.80
2017-09-17T06:37:44.471Z,16.08
2017-09-17T06:38:56.550Z,14.68
2017-09-17T06:40:08.387Z,13.75
2017-09-17T06:41:19.448Z,14.05
2017-09-17T06:42:29.573Z,14.57
2017-09-17T06:43:40.519Z,13.68
2017-09-17T06:44:50.472Z,12.98
2017-09-17T06:45:59.423Z,12.10
2017-09-17T06:47:10.438Z,13.55
2017-09-17T06:48:20.576Z,13.48
2017-09-17T06:49:31.513Z,11.85
2017-09-17T06:50:43.390Z,11.40
2017-09-17T06:51:54.566Z,12.25
2017-09-17T06:53:04.554Z,10.88
2017-09-17T06:54:14.531Z,11.50
2017-09-17T06:55:24.403Z,10.50
2017-09-17T06:56:34.493Z,10.93
2017-09-17T06:57:44.408Z,10.35
2017-09-17T06:58:53.426Z,11.15
2017-09-17T07:00:04.500Z,9.90
2017-09-17T07:01:16.540Z,10.18
2017-09-17T07:02:26.786Z,10.35
2017-09-17T07:03:35.287Z,9.73
2017-09-17T07:04:43.405Z,10.23
2017-09-17T07:05:52.360Z,9.32
2017-09-17T07:07:00.285Z,9.27
2017-09-17T07:08:08.415Z,9.57
2017-09-17T07:09:16.178Z,9.73
2017-09-17T07:10:24.430Z,10.85
2017-09-17T07:11:33.326Z,9.52
2017-09-17T07:12:41.313Z,10.50
2017-09-17T07:13:49.249Z,9.82
2017-09-17T07:14:58.275Z,9.90
2017-09-17T07:16:07.292Z,10.20
2017-09-17T07:17:15.263Z,9.95
2017-09-17T07:18:23.239Z,10.18
2017-09-17T07:19:31.336Z,10.23
2017-09-17T07:20:41.357Z,9.68
2017-09-17T07:21:49.222Z,9.38
2017-09-17T07:22:57.191Z,9.93
2017-09-17T07:24:06.155Z,9.48
2017-09-17T07:25:13.728Z,9.20
2017-09-17T07:26:21.180Z,10.38
2017-09-17T07:27:29.149Z,8.60
2017-09-17T07:28:37.180Z,9.32
2017-09-17T07:29:44.701Z,8.50
2017-09-17T07:30:53.130Z,8.15
2017-09-17T07:32:00.149Z,7.43
2017-09-17T07:33:07.606Z,8.73
2017-09-17T07:34:15.058Z,8.02
2017-09-17T07:35:22.162Z,8.43
2017-09-17T07:36:30.499Z,8.20
2017-09-17T07:37:39.240Z,7.65
2017-09-17T07:38:47.112Z,8.60
2017-09-17T07:39:54.663Z,9.05
2017-09-17T07:41:02.210Z,8.15
2017-09-17T07:42:10.191Z,8.13
2017-09-17T07:43:18.126Z,8.70
2017-09-17T07:44:26.168Z,8.50
2017-09-17T07:45:33.757Z,8.43
2017-09-17T07:46:42.182Z,8.27
2017-09-17T07:47:50.154Z,8.15
2017-09-17T07:48:57.683Z,7.70
2017-09-17T07:50:05.273Z,8.35
2017-09-17T07:51:13.222Z,7.60
2017-09-17T07:52:20.634Z,7.25
2017-09-17T07:53:28.097Z,8.13
2017-09-17T07:54:36.177Z,8.38
2017-09-17T07:55:45.087Z,7.53
2017-09-17T07:56:54.159Z,8.98
2017-09-17T07:58:02.191Z,8.15
2017-09-17T07:59:10.182Z,7.65
2017-09-17T08:00:19.265Z,8.48
2017-09-17T08:01:27.148Z,8.25
2017-09-17T08:02:35.094Z,7.62
2017-09-17T08:03:43.318Z,7.57
2017-09-17T08:04:52.164Z,8.15
2017-09-17T08:05:59.199Z,8.30
2017-09-17T08:07:06.927Z,7.68
2017-09-17T08:08:15.030Z,8.40
2017-09-17T08:09:23.232Z,8.15
2017-09-17T08:10:31.202Z,7.00
2017-09-17T08:11:38.576Z,7.53
2017-09-17T08:12:46.075Z,8.02
2017-09-17T08:13:53.587Z,8.02
2017-09-17T08:15:01.760Z,7.80
2017-09-17T08:16:10.183Z,7.00
2017-09-17T08:17:17.547Z,7.43
2017-09-17T08:18:25.084Z,7.80
2017-09-17T08:19:33.226Z,7.62
2017-09-17T08:20:41.123Z,6.75
2017-09-17T08:21:49.063Z,7.85
2017-09-17T08:22:56.106Z,8.23
2017-09-17T08:24:03.855Z,7.15
2017-09-17T08:25:11.904Z,7.12
2017-09-17T08:26:19.343Z,7.55
2017-09-17T08:27:28.084Z,8.00
2017-09-17T08:28:35.518Z,7.60
2017-09-17T08:29:44.230Z,7.55
2017-09-17T08:30:52.996Z,7.18
2017-09-17T08:32:00.100Z,7.53
2017-09-17T08:33:07.964Z,7.32
2017-09-17T08:34:16.051Z,7.72
2017-09-17T08:35:23.551Z,7.28
2017-09-17T08:36:31.152Z,7.37
2017-09-17T08:37:39.015Z,7.22
2017-09-17T08:38:46.047Z,7.28
2017-09-17T08:39:54.503Z,6.85
2017-09-17T08:41:03.142Z,6.75
2017-09-17T08:42:12.071Z,6.65
2017-09-17T08:43:20.040Z,6.65
2017-09-17T08:44:29.039Z,6.95
2017-09-17T08:45:37.116Z,7.50
2017-09-17T08:46:45.375Z,7.53
2017-09-17T08:47:53.051Z,7.25
2017-09-17T08:49:00.540Z,7.37
2017-09-17T08:50:07.531Z,6.15
2017-09-17T08:51:14.969Z,7.00
2017-09-17T08:52:23.005Z,6.45
2017-09-17T08:53:32.096Z,7.25
2017-09-17T08:54:41.044Z,7.20
2017-09-17T08:55:50.392Z,7.10
2017-09-17T08:57:00.140Z,7.87
2017-09-17T08:58:09.156Z,7.28
2017-09-17T08:59:18.116Z,6.90
2017-09-17T09:00:26.028Z,6.97
2017-09-17T09:01:35.020Z,7.30
2017-09-17T09:02:44.451Z,7.07
2017-09-17T09:03:54.205Z,6.40
2017-09-17T09:05:02.113Z,6.20
2017-09-17T09:06:16.125Z,6.37
2017-09-17T09:07:24.303Z,6.40
2017-09-17T09:08:32.047Z,6.37
2017-09-17T09:09:40.909Z,6.00
2017-09-17T09:10:49.904Z,6.43
2017-09-17T09:11:59.027Z,5.55
2017-09-17T09:13:08.062Z,5.57
2017-09-17T09:14:16.054Z,5.60
2017-09-17T09:15:24.998Z,5.93
2017-09-17T09:16:35.027Z,5.82
2017-09-17T09:17:44.077Z,6.22
2017-09-17T09:18:52.124Z,5.45
2017-09-17T09:19:59.463Z,6.15
2017-09-17T09:21:07.084Z,6.45
2017-09-17T09:22:14.975Z,6.25
2017-09-17T09:23:24.063Z,6.10
2017-09-17T09:24:31.937Z,5.80
2017-09-17T09:25:39.100Z,5.40
2017-09-17T09:26:46.969Z,5.72
2017-09-17T09:27:55.998Z,4.12
2017-09-17T09:29:05.087Z,5.00
2017-09-17T09:30:13.030Z,5.28
2017-09-17T09:31:23.062Z,5.05
2017-09-17T09:32:34.116Z,4.85
2017-09-17T09:33:41.947Z,5.20
2017-09-17T09:34:50.350Z,4.40
2017-09-17T09:36:00.037Z,4.20
2017-09-17T09:37:09.883Z,4.45
2017-09-17T09:38:18.750Z,4.37
2017-09-17T09:39:27.901Z,4.68
2017-09-17T09:40:36.019Z,4.97
2017-09-17T09:41:43.959Z,4.75
2017-09-17T09:42:51.931Z,4.28
2017-09-17T09:43:59.964Z,4.07
2017-09-17T09:45:07.835Z,4.10
2017-09-17T09:46:15.983Z,5.15
2017-09-17T09:47:24.915Z,4.72
2017-09-17T09:48:33.998Z,4.50
2017-09-17T09:49:43.081Z,3.75
2017-09-17T09:50:52.898Z,4.57
2017-09-17T09:52:01.007Z,4.50
2017-09-17T09:53:08.903Z,3.83
2017-09-17T09:54:16.924Z,4.55
2017-09-17T09:55:25.023Z,4.60
2017-09-17T09:56:33.987Z,3.85
2017-09-17T09:57:41.967Z,4.20
2017-09-17T09:58:49.982Z,3.90
2017-09-17T10:00:00.084Z,4.00
2017-09-17T10:01:10.903Z,4.37
2017-09-17T10:02:20.014Z,4.37
2017-09-17T10:03:27.874Z,4.25
2017-09-17T10:04:36.894Z,3.80
2017-09-17T10:05:47.773Z,4.10
2017-09-17T10:06:57.101Z,3.60
2017-09-17T10:08:06.003Z,4.10
2017-09-17T10:09:14.896Z,4.10
2017-09-17T10:10:25.986Z,4.60
2017-09-17T10:11:38.118Z,4.20
2017-09-17T10:12:47.947Z,4.37
2017-09-17T10:14:00.130Z,4.60
2017-09-17T10:15:12.531Z,4.68
2017-09-17T10:18:34.110Z,4.65
2017-09-17T10:19:44.918Z,5.37
2017-09-17T10:20:54.948Z,4.70
2017-09-17T10:22:05.048Z,4.57
2017-09-17T10:23:15.082Z,4.80
2017-09-17T10:24:29.163Z,4.25
2017-09-17T10:25:59.847Z,4.60
2017-09-17T10:27:13.343Z,4.22
2017-09-17T10:28:46.975Z,4.82
2017-09-17T10:29:55.695Z,4.65
2017-09-17T10:31:35.764Z,3.87
2017-09-17T10:32:51.047Z,4.80
2017-09-17T10:34:02.424Z,4.53
2017-09-17T10:35:12.071Z,4.85
2017-09-17T10:36:22.919Z,4.05
2017-09-17T10:37:32.978Z,4.20
2017-09-17T10:38:44.137Z,4.12
2017-09-17T10:39:54.198Z,4.00
2017-09-17T10:41:03.931Z,4.37
2017-09-17T10:42:14.954Z,3.75
2017-09-17T10:43:25.597Z,3.40
2017-09-17T10:44:35.985Z,3.50
2017-09-17T10:45:46.957Z,3.25
2017-09-17T10:46:57.954Z,3.65
2017-09-17T10:48:10.082Z,3.70
2017-09-17T10:49:19.927Z,3.75
2017-09-17T10:50:30.165Z,3.50
2017-09-17T10:51:40.027Z,3.45
2017-09-17T10:52:49.995Z,3.28
2017-09-17T10:54:02.175Z,3.45
2017-09-17T10:55:11.900Z,3.15
2017-09-17T10:56:22.078Z,3.40
2017-09-17T10:57:35.063Z,4.05
2017-09-17T10:58:45.071Z,4.00
2017-09-17T10:59:57.191Z,3.17
2017-09-17T11:01:05.776Z,3.00
2017-09-17T11:02:15.059Z,2.45
2017-09-17T11:03:31.019Z,2.80
2017-09-17T11:04:43.001Z,2.80
2017-09-17T11:05:52.881Z,2.33
2017-09-17T11:07:03.847Z,2.75
2017-09-17T11:08:15.142Z,3.03
2017-09-17T11:09:24.022Z,2.80
2017-09-17T11:10:33.915Z,3.12
2017-09-17T11:11:42.917Z,2.62
2017-09-17T11:12:53.007Z,2.40
2017-09-17T11:14:04.812Z,2.45
2017-09-17T11:15:14.035Z,2.17
2017-09-17T11:16:26.942Z,2.40
2017-09-17T11:17:38.947Z,2.08
2017-09-17T11:18:48.977Z,1.90
2017-09-17T11:20:00.024Z,2.47
2017-09-17T11:21:09.945Z,1.85
2017-09-17T11:22:19.789Z,1.37
2017-09-17T11:23:29.865Z,1.50
2017-09-17T11:24:40.904Z,1.55
2017-09-17T11:25:53.817Z,2.17
2017-09-17T11:27:04.988Z,1.87
2017-09-17T11:28:16.950Z,2.53
2017-09-17T11:29:26.951Z,3.42
2017-09-17T11:30:37.592Z,2.40
2017-09-17T11:31:46.970Z,2.40
2017-09-17T11:32:58.186Z,2.10
2017-09-17T11:34:08.848Z,1.85
2017-09-17T11:35:20.929Z,1.75
2017-09-17T11:36:32.963Z,1.30
2017-09-17T11:37:42.909Z,1.42
2017-09-17T11:38:53.907Z,1.62
2017-09-17T11:40:04.801Z,1.73
2017-09-17T11:41:15.944Z,2.00
2017-09-17T11:42:26.800Z,2.53
2017-09-17T11:43:38.020Z,2.40
2017-09-17T11:44:48.947Z,1.60
2017-09-17T11:46:00.914Z,1.83
2017-09-17T11:47:12.937Z,1.67
2017-09-17T11:48:23.038Z,1.62
2017-09-17T11:49:32.797Z,2.10
2017-09-17T11:50:44.985Z,2.47
2017-09-17T11:51:56.916Z,1.67
2017-09-17T11:53:07.877Z,2.22
2017-09-17T11:54:20.087Z,1.90
2017-09-17T11:55:30.753Z,1.80
2017-09-17T11:56:39.493Z,1.70
2017-09-17T11:57:48.794Z,1.52
2017-09-17T11:58:58.960Z,2.03
2017-09-17T12:00:08.899Z,1.67
2017-09-17T12:01:18.966Z,1.50
2017-09-17T12:02:28.457Z,1.50
2017-09-17T12:03:37.847Z,1.50
2017-09-17T12:04:47.850Z,1.30
2017-09-17T12:05:57.892Z,2.12
2017-09-17T12:07:09.818Z,1.65
2017-09-17T12:08:20.786Z,1.30
2017-09-17T12:09:31.881Z,1.60
2017-09-17T12:10:42.874Z,1.20
2017-09-17T12:11:54.899Z,1.12
2017-09-17T12:13:05.816Z,1.08
2017-09-17T12:14:15.899Z,1.65
2017-09-17T12:15:25.878Z,1.08
2017-09-17T12:16:35.763Z,1.15
2017-09-17T12:17:45.734Z,1.33
2017-09-17T12:18:56.853Z,1.27
2017-09-17T12:20:06.682Z,1.35
2017-09-17T12:21:16.951Z,1.25
2017-09-17T12:22:26.831Z,1.30
2017-09-17T12:23:35.701Z,1.42
2017-09-17T12:24:45.844Z,1.10
2017-09-17T12:25:56.688Z,1.50
2017-09-17T12:27:07.022Z,1.40
2017-09-17T12:28:17.717Z,1.40
2017-09-17T12:29:27.699Z,1.40
2017-09-17T12:30:37.840Z,1.60
2017-09-17T12:31:51.084Z,1.70
2017-09-17T12:33:03.731Z,1.70
2017-09-17T12:34:13.844Z,1.15
2017-09-17T12:35:24.757Z,2.20
2017-09-17T12:36:35.715Z,1.60
2017-09-17T12:37:46.830Z,1.33
2017-09-17T12:38:56.809Z,1.48
2017-09-17T12:40:08.837Z,1.60
2017-09-17T12:41:19.736Z,1.75
2017-09-17T12:42:31.680Z,1.25
2017-09-17T12:43:41.821Z,1.95
2017-09-17T12:44:53.844Z,1.83
2017-09-17T12:46:04.697Z,1.50
2017-09-17T12:47:15.809Z,1.35
2017-09-17T12:48:25.788Z,1.80
2017-09-17T12:49:40.778Z,1.85
2017-09-17T12:50:50.790Z,1.70
2017-09-17T12:52:00.641Z,1.95
2017-09-17T12:53:11.732Z,1.58
2017-09-17T12:54:25.942Z,1.58
2017-09-17T12:55:37.950Z,1.70
2017-09-17T12:56:47.792Z,1.70
2017-09-17T12:57:58.959Z,1.60
2017-09-17T12:59:09.774Z,1.70
2017-09-17T13:00:19.778Z,1.65
2017-09-17T13:01:29.618Z,1.50
2017-09-17T13:02:40.715Z,1.70
2017-09-17T13:03:56.940Z,1.70
2017-09-17T13:05:11.983Z,1.83
2017-09-17T13:06:27.822Z,1.80
2017-09-17T13:07:40.743Z,1.35
2017-09-17T13:08:54.631Z,1.30
2017-09-17T13:10:09.777Z,1.20
2017-09-17T13:11:22.789Z,1.50
2017-09-17T13:12:42.634Z,1.70
2017-09-17T13:13:56.917Z,1.77
2017-09-17T13:15:08.745Z,1.80
2017-09-17T13:16:22.675Z,1.35
2017-09-17T13:17:34.757Z,1.50
2017-09-17T13:18:45.659Z,1.35
2017-09-17T13:19:57.602Z,1.40
2017-09-17T13:21:09.503Z,1.58
2017-09-17T13:22:20.613Z,1.45
2017-09-17T13:23:31.690Z,1.65
2017-09-17T13:24:39.835Z,1.58
2017-09-17T13:25:50.694Z,1.60
2017-09-17T13:27:01.748Z,1.58
2017-09-17T13:28:14.677Z,1.45
2017-09-17T13:29:27.464Z,1.85
2017-09-17T13:30:37.553Z,1.45
2017-09-17T13:31:48.343Z,1.50
2017-09-17T13:32:57.883Z,1.42
2017-09-17T13:34:06.536Z,1.50
2017-09-17T13:35:15.428Z,1.98
2017-09-17T13:36:23.591Z,1.60
2017-09-17T13:37:32.652Z,2.25
2017-09-17T13:38:42.427Z,1.73
2017-09-17T13:39:50.502Z,1.65
2017-09-17T13:41:02.740Z,1.30
2017-09-17T13:42:12.353Z,1.40
2017-09-17T13:43:21.407Z,1.60
2017-09-17T13:44:31.508Z,1.55
2017-09-17T13:45:41.482Z,1.85
2017-09-17T13:46:51.499Z,1.73
2017-09-17T13:48:02.534Z,1.70
2017-09-17T13:49:12.363Z,1.75
2017-09-17T13:50:23.613Z,1.50
2017-09-17T13:51:32.563Z,1.70
2017-09-17T13:52:43.648Z,1.90
2017-09-17T13:53:53.597Z,1.98
2017-09-17T13:55:04.667Z,1.52
2017-09-17T13:56:14.443Z,1.98
2017-09-17T13:57:24.369Z,1.40
2017-09-17T13:58:35.562Z,1.50
2017-09-17T14:00:03.752Z,1.50
2017-09-17T14:01:26.493Z,1.70
2017-09-17T14:02:42.614Z,1.55
2017-09-17T14:04:03.599Z,1.60
2017-09-17T14:05:18.575Z,1.60
2017-09-17T14:06:48.812Z,1.75
2017-09-17T14:08:17.734Z,1.52
2017-09-17T14:09:43.672Z,1.60
2017-09-17T14:11:00.671Z,1.50
2017-09-17T14:12:12.618Z,1.45
2017-09-17T14:13:26.745Z,1.50
2017-09-17T14:14:42.592Z,1.65
2017-09-17T14:15:56.614Z,1.40
2017-09-17T14:17:09.838Z,1.77
2017-09-17T14:18:24.624Z,2.00
2017-09-17T14:19:37.719Z,1.73
2017-09-17T14:20:51.540Z,1.70
2017-09-17T14:22:04.399Z,1.55
2017-09-17T14:23:18.795Z,1.73
2017-09-17T14:24:33.752Z,2.40
2017-09-17T14:25:48.334Z,3.10
2017-09-17T14:27:01.493Z,2.53
2017-09-17T14:28:15.678Z,2.17
2017-09-17T14:29:29.645Z,2.22
2017-09-17T14:30:43.616Z,2.60
2017-09-17T14:31:57.442Z,2.30
2017-09-17T14:33:11.541Z,3.92
2017-09-17T14:34:26.778Z,3.10
2017-09-17T14:35:43.708Z,2.80
2017-09-17T14:36:57.784Z,3.12
2017-09-17T14:38:15.762Z,3.60
2017-09-17T14:39:32.732Z,3.15
2017-09-17T14:40:47.717Z,2.90
2017-09-17T14:42:00.555Z,3.30
2017-09-17T14:43:16.527Z,3.20
2017-09-17T14:44:29.776Z,3.62
2017-09-17T14:45:43.543Z,3.40
2017-09-17T14:46:58.638Z,3.20
2017-09-17T14:48:14.537Z,3.78
2017-09-17T14:49:29.360Z,3.78
2017-09-17T14:50:45.509Z,4.35
2017-09-17T14:52:00.392Z,4.25
2017-09-17T14:53:17.039Z,4.10
2017-09-17T14:54:30.555Z,3.45
2017-09-17T14:55:45.675Z,3.85
2017-09-17T14:57:03.366Z,4.32
2017-09-17T14:58:20.725Z,3.97
2017-09-17T14:59:34.389Z,4.22
2017-09-17T15:00:47.481Z,4.97
2017-09-17T15:02:07.237Z,5.95
2017-09-17T15:03:22.495Z,4.53
2017-09-17T15:04:38.571Z,4.03
2017-09-17T15:05:57.501Z,4.10
2017-09-17T15:07:08.373Z,4.32
2017-09-17T15:08:18.528Z,4.40
2017-09-17T15:09:31.618Z,4.10
2017-09-17T15:10:44.683Z,4.45
2017-09-17T15:11:57.409Z,4.35
2017-09-17T15:13:11.649Z,4.60
2017-09-17T15:14:25.522Z,4.40
2017-09-17T15:15:37.243Z,4.68
2017-09-17T15:16:48.237Z,4.50
2017-09-17T15:18:00.418Z,4.10